Indian Springs, Nevada
Current Conditions -  °F | °C
As of 7:58 PM on Friday 24 Oct 2014 (Local Time) from KINS Reporting Station
Clear Clear  
Wind Chill: 74°   Ceiling: Unl
Heat Index: 74°   Visibility: 10mi
Dew Point: 34°   Wind: 1mph
Humidity: 24%   Direction: 230°SW
Pressure: 30.04"   Gusts: NA
Location:  36.57°N, 115.67°W
Report Text: KINS 250258Z AUTO 23001KT 10SM CLR 23/01 A3004 RMK AO2 SLP143 T02310013 53007 $
Loading
Personal Weather Stations






























Interactive Weather Map
Tropical Storm Tracking
New forecast layout! Learn more

10-Day Weather Forecast

Advertisements
Track Severe Weather on mobile